Terminal Aerodrome Forecast
Issued by NWS Tiyan, Guam

Current Version | Previous Version | Text Only | Print | Product List | Glossary On
Versions: 1 2 3 4 5 6 7 8 9 10 11 12 13 14 15 16 17 18 19 20 21 22 23 24 25 26 27 28 29 30 31 32 33 34 35 36
000
FTPQ31 PGUM 180905 AAQ
TAFGUM
TAF AMD
PGUM 180905Z 1809/1912 07011G20KT 6SM -RA SCT012 BKN030 OVC070
      TEMPO 1809/1813 3SM SHRA SCT010 BKN020 OVC030
     FM181500 06011KT P6SM VCSH SCT012 BKN040 OVC070=

USA.gov is the U.S. government's official web portal to all federal, state and local government web resources and services.